Time;durP1;ratioP1;P1;durP2;ratioP2;P2;SDS_P1;SDS_P2;PMS_P1;PMS_P2;Temp;Humidity;BMP_temperature;BMP_pressure;BME280_temperature;BME280_humidity;BME280_pressure;Samples;Min_cycle;Max_cycle;Signal;HPM_P1;HPM_P2
2022/10/22 00:00:49;;;;;;;3.58;1.50;;;;;;;19.34;60.44;100569.50;5059700;28;20032;-46
2022/10/22 00:03:14;;;;;;;1.58;1.00;;;;;;;19.35;60.46;100563.25;5057173;28;20436;-46
2022/10/22 00:05:40;;;;;;;3.38;1.27;;;;;;;19.33;60.58;100546.72;5056219;28;20041;-46
2022/10/22 00:08:05;;;;;;;2.55;1.13;;;;;;;19.32;60.57;100558.19;5055477;28;20040;-45
2022/10/22 00:10:31;;;;;;;2.47;1.40;;;;;;;19.32;60.65;100550.28;5060183;28;20123;-46
2022/10/22 00:12:56;;;;;;;2.58;1.17;;;;;;;19.33;60.43;100548.50;5057999;28;20047;-47
2022/10/22 00:15:21;;;;;;;1.70;1.20;;;;;;;19.33;60.67;100548.50;5055986;28;20097;-48
2022/10/22 00:17:48;;;;;;;3.45;1.42;;;;;;;19.33;60.46;100544.09;5057572;28;20802;-48
2022/10/22 00:20:14;;;;;;;1.70;1.15;;;;;;;19.32;60.65;100536.25;5057019;28;20036;-46
2022/10/22 00:22:39;;;;;;;2.65;1.40;;;;;;;19.32;60.57;100542.38;5054137;28;20109;-47
2022/10/22 00:25:04;;;;;;;3.80;1.35;;;;;;;19.33;60.54;100540.59;5061055;28;20067;-46
2022/10/22 00:27:30;;;;;;;2.90;1.30;;;;;;;19.33;60.45;100536.19;5059447;28;20056;-46
2022/10/22 00:29:55;;;;;;;1.95;1.10;;;;;;;19.32;60.39;100539.75;5054650;28;20029;-39
2022/10/22 00:32:20;;;;;;;4.65;1.63;;;;;;;19.33;60.47;100537.97;5059704;28;20073;-41
2022/10/22 00:34:46;;;;;;;2.75;1.20;;;;;;;19.33;60.44;100535.31;5058176;28;20028;-40
2022/10/22 00:37:11;;;;;;;2.05;1.50;;;;;;;19.33;60.53;100544.09;5055191;28;20140;-46
2022/10/22 00:39:36;;;;;;;1.95;1.10;;;;;;;19.33;60.57;100553.75;5056644;28;20076;-47
2022/10/22 00:42:02;;;;;;;2.05;1.42;;;;;;;19.33;60.52;100543.22;5056280;28;20066;-45
2022/10/22 00:45:01;;;;;;;2.20;1.52;;;;;;;19.32;60.52;100546.78;5057713;28;20063;-47
2022/10/22 00:47:31;;;;;;;2.78;1.25;;;;;;;19.32;60.40;100549.41;5060968;28;20102;-41
2022/10/22 00:49:58;;;;;;;4.22;1.40;;;;;;;19.29;60.50;100547.81;5065534;28;20519;-40
2022/10/22 00:52:24;;;;;;;1.63;1.40;;;;;;;19.31;60.43;100548.59;5059690;28;20095;-40
2022/10/22 00:54:50;;;;;;;1.80;1.38;;;;;;;19.31;60.52;100537.22;5064761;28;20040;-39
2022/10/22 00:57:17;;;;;;;2.00;1.10;;;;;;;19.31;60.32;100532.81;5060830;28;20040;-39
2022/10/22 00:59:43;;;;;;;3.20;1.20;;;;;;;19.31;60.30;100530.16;5060832;28;20043;-41
2022/10/22 01:02:08;;;;;;;3.20;1.63;;;;;;;19.32;60.38;100530.97;5060479;28;20029;-40
2022/10/22 01:04:33;;;;;;;2.72;1.10;;;;;;;19.31;60.38;100531.94;5063113;28;20059;-40
2022/10/22 01:06:59;;;;;;;1.90;1.27;;;;;;;19.30;60.40;100525.81;5061168;28;20156;-40
2022/10/22 01:09:43;;;;;;;1.80;1.10;;;;;;;19.30;60.38;100520.56;5061436;28;20814;-40
2022/10/22 01:12:20;;;;;;;1.88;1.40;;;;;;;19.31;60.27;100529.31;5064930;28;20044;-41
2022/10/22 01:15:09;;;;;;;2.22;1.35;;;;;;;19.30;60.45;100528.47;5052772;28;20178;-41
2022/10/22 01:17:43;;;;;;;1.42;1.17;;;;;;;19.31;60.47;100529.31;5057745;28;20399;-41
2022/10/22 01:20:36;;;;;;;2.40;1.40;;;;;;;19.30;60.51;100524.97;5061540;28;20047;-40
2022/10/22 01:23:12;;;;;;;1.90;1.10;;;;;;;19.29;60.45;100525.91;5059286;28;20056;-40
2022/10/22 01:25:57;;;;;;;2.20;1.00;;;;;;;19.29;60.40;100536.44;5064140;28;20032;-41
2022/10/22 01:28:42;;;;;;;2.20;1.38;;;;;;;19.29;60.39;100533.81;5060745;28;20076;-41
2022/10/22 01:31:11;;;;;;;1.52;1.10;;;;;;;19.29;60.43;100526.75;5060034;28;20044;-42
2022/10/22 01:33:38;;;;;;;4.35;1.38;;;;;;;19.29;60.50;100529.38;5061240;28;20097;-40
2022/10/22 01:36:04;;;;;;;2.85;1.50;;;;;;;19.28;60.36;100530.34;5058184;28;20048;-41
2022/10/22 01:38:30;;;;;;;2.08;1.20;;;;;;;19.28;60.33;100526.84;5059436;28;20041;-40
2022/10/22 01:40:56;;;;;;;2.53;1.60;;;;;;;19.28;60.46;100530.34;5059233;28;20036;-41
2022/10/22 01:43:22;;;;;;;1.42;1.00;;;;;;;19.29;60.40;100520.63;5058877;28;20129;-41
2022/10/22 01:45:50;;;;;;;2.33;1.30;;;;;;;19.29;60.39;100518.84;5061317;28;20033;-41
2022/10/22 01:48:39;;;;;;;1.50;1.00;;;;;;;19.28;60.36;100521.56;5058215;28;20060;-41
2022/10/22 01:51:40;;;;;;;2.10;1.30;;;;;;;19.29;60.24;100525.91;5058830;28;20040;-40
2022/10/22 01:54:28;;;;;;;1.67;1.20;;;;;;;19.26;60.37;100533.03;5041197;28;20044;-40
2022/10/22 01:57:08;;;;;;;1.60;1.20;;;;;;;19.30;60.24;100532.88;5057217;28;20314;-41
2022/10/22 01:59:57;;;;;;;1.83;1.20;;;;;;;19.28;60.21;100532.97;5057503;28;20028;-41
2022/10/22 02:02:35;;;;;;;1.38;1.20;;;;;;;19.27;60.29;100531.25;5060817;28;21076;-40
2022/10/22 02:05:14;;;;;;;1.75;1.38;;;;;;;19.28;60.19;100535.63;5060319;28;20123;-40
2022/10/22 02:07:45;;;;;;;2.90;1.20;;;;;;;19.26;60.33;100530.41;5059444;28;20040;-40
2022/10/22 02:10:12;;;;;;;1.92;1.23;;;;;;;19.25;60.37;100531.31;5065469;28;21407;-40
2022/10/22 02:12:41;;;;;;;3.13;1.20;;;;;;;19.26;60.24;100535.66;5059520;28;20040;-40
2022/10/22 02:15:07;;;;;;;2.30;1.38;;;;;;;19.26;60.30;100530.41;5064750;28;20055;-40
2022/10/22 02:17:36;;;;;;;2.63;1.30;;;;;;;19.26;60.21;100527.75;5064361;28;20055;-40
2022/10/22 02:20:07;;;;;;;2.00;1.08;;;;;;;19.26;60.54;100532.19;5063405;28;20052;-40
2022/10/22 02:22:33;;;;;;;2.00;1.30;;;;;;;19.26;60.24;100532.19;5060449;28;20063;-41
2022/10/22 02:24:59;;;;;;;2.40;1.30;;;;;;;19.27;60.28;100528.63;5064167;28;20075;-40
2022/10/22 02:27:24;;;;;;;3.80;1.58;;;;;;;19.25;60.27;100526.06;5064864;28;20035;-40
2022/10/22 02:30:11;;;;;;;2.58;1.00;;;;;;;19.25;60.25;100531.31;5063391;28;20040;-41
2022/10/22 02:32:57;;;;;;;1.60;1.10;;;;;;;19.27;60.18;100528.63;5062272;28;20667;-41
2022/10/22 02:35:26;;;;;;;1.00;0.90;;;;;;;19.25;60.22;100527.88;5064873;28;20185;-40
2022/10/22 02:37:53;;;;;;;2.17;1.30;;;;;;;19.26;60.09;100529.53;5058202;28;20029;-40
2022/10/22 02:40:19;;;;;;;2.35;1.10;;;;;;;19.26;60.21;100521.66;5068798;28;20055;-41
2022/10/22 02:42:46;;;;;;;2.25;1.00;;;;;;;19.26;60.16;100513.75;5059524;28;20814;-40
2022/10/22 02:45:12;;;;;;;1.88;1.10;;;;;;;19.26;60.16;100519.00;5064609;28;20040;-40
2022/10/22 02:47:38;;;;;;;1.95;1.20;;;;;;;19.26;60.10;100517.22;5063076;28;20032;-41
2022/10/22 02:50:04;;;;;;;1.65;1.20;;;;;;;19.26;60.23;100529.53;5065534;28;21111;-41
2022/10/22 02:52:29;;;;;;;1.67;1.30;;;;;;;19.26;60.19;100535.66;5057791;28;20033;-40
2022/10/22 02:54:55;;;;;;;1.88;1.08;;;;;;;19.24;60.23;100529.66;5062905;28;20135;-41
2022/10/22 02:57:20;;;;;;;1.75;1.30;;;;;;;19.25;60.16;100531.31;5060200;28;20114;-40
2022/10/22 02:59:45;;;;;;;1.90;1.25;;;;;;;19.25;60.17;100546.31;5059958;28;20101;-40
2022/10/22 03:02:11;;;;;;;1.70;1.20;;;;;;;19.26;60.07;100542.72;5058934;28;20031;-40
2022/10/22 03:04:36;;;;;;;2.00;1.20;;;;;;;19.25;60.15;100546.31;5061542;28;20093;-41
2022/10/22 03:07:01;;;;;;;1.65;1.13;;;;;;;19.25;60.11;100555.03;5060217;28;20032;-40
2022/10/22 03:09:27;;;;;;;1.85;1.10;;;;;;;19.25;60.11;100552.41;5063735;28;20043;-41
2022/10/22 03:11:52;;;;;;;1.10;0.98;;;;;;;19.24;60.14;100557.78;5061348;28;20096;-40
2022/10/22 03:14:18;;;;;;;2.30;1.20;;;;;;;19.24;60.16;100556.00;5058340;28;20028;-40
2022/10/22 03:16:43;;;;;;;1.38;0.95;;;;;;;19.24;60.08;100550.72;5058336;28;20678;-41
2022/10/22 03:19:09;;;;;;;1.33;0.90;;;;;;;19.25;60.14;100562.09;5062276;28;20064;-41
2022/10/22 03:21:44;;;;;;;3.28;1.10;;;;;;;19.25;60.08;100559.47;5058687;28;20041;-40
2022/10/22 03:24:13;;;;;;;1.33;1.10;;;;;;;19.24;60.09;100560.41;5057701;28;20043;-41
2022/10/22 03:26:42;;;;;;;1.70;1.40;;;;;;;19.25;60.01;100564.75;5057491;28;20146;-41
2022/10/22 03:29:10;;;;;;;1.35;1.17;;;;;;;19.24;60.11;100561.25;5066037;28;20032;-41
2022/10/22 03:31:35;;;;;;;1.63;1.13;;;;;;;19.24;60.04;100563.03;5057768;28;20033;-41
2022/10/22 03:34:01;;;;;;;3.58;1.33;;;;;;;19.25;60.13;100564.75;5055287;28;20045;-41
2022/10/22 03:36:26;;;;;;;2.35;1.20;;;;;;;19.25;60.05;100572.66;5061504;28;20044;-41
2022/10/22 03:38:52;;;;;;;1.38;1.00;;;;;;;19.24;59.93;100571.78;5054566;28;20111;-41
2022/10/22 03:41:17;;;;;;;2.33;1.55;;;;;;;19.23;60.16;100570.09;5062107;28;20093;-41
2022/10/22 03:43:48;;;;;;;1.75;1.20;;;;;;;19.24;60.03;100570.94;5055956;28;20218;-40
2022/10/22 03:46:13;;;;;;;1.92;1.10;;;;;;;19.24;60.09;100571.78;5057382;28;20036;-40
2022/10/22 03:48:39;;;;;;;1.75;1.30;;;;;;;19.24;59.98;100570.94;5059318;28;20569;-40
2022/10/22 03:51:04;;;;;;;1.48;1.17;;;;;;;19.22;60.26;100576.28;5058725;28;20036;-41
2022/10/22 03:53:30;;;;;;;1.48;1.00;;;;;;;19.23;60.22;100572.72;5056811;28;20032;-41
2022/10/22 03:55:55;;;;;;;1.45;1.02;;;;;;;19.23;60.01;100569.22;5058588;28;20032;-41
2022/10/22 03:58:20;;;;;;;1.55;1.15;;;;;;;19.24;60.33;100574.41;5058798;28;20605;-41
2022/10/22 04:00:46;;;;;;;1.42;0.98;;;;;;;19.24;60.05;100561.25;5056530;28;20116;-41
2022/10/22 04:03:11;;;;;;;2.30;1.20;;;;;;;19.24;60.02;100568.31;5057538;28;20520;-41
2022/10/22 04:05:36;;;;;;;1.75;1.05;;;;;;;19.22;60.03;100571.00;5059528;28;20552;-41
2022/10/22 04:08:02;;;;;;;1.73;1.00;;;;;;;19.22;59.98;100576.28;5055823;28;20077;-40
2022/10/22 04:10:27;;;;;;;2.10;1.13;;;;;;;19.23;60.03;100575.34;5058053;28;20687;-40
2022/10/22 04:12:52;;;;;;;1.65;1.05;;;;;;;19.23;59.94;100587.66;5053878;28;20441;-41
2022/10/22 04:15:18;;;;;;;1.13;1.00;;;;;;;19.23;59.87;100590.28;5058835;28;20207;-40
2022/10/22 04:17:43;;;;;;;1.60;1.10;;;;;;;19.24;60.09;100589.38;5060080;28;20037;-41
2022/10/22 04:20:10;;;;;;;1.42;1.05;;;;;;;19.22;60.00;100594.72;5063043;28;20143;-41
2022/10/22 04:22:35;;;;;;;2.28;1.30;;;;;;;19.22;59.90;100589.44;5057043;28;20040;-40
2022/10/22 04:25:01;;;;;;;2.10;1.30;;;;;;;19.22;59.99;100594.72;5060968;28;20886;-41
2022/10/22 04:27:34;;;;;;;1.13;0.90;;;;;;;19.22;59.95;100596.53;5061392;28;20082;-41
2022/10/22 04:29:59;;;;;;;2.05;1.23;;;;;;;19.23;59.94;100606.09;5061436;28;20063;-40
2022/10/22 04:32:27;;;;;;;1.33;0.82;;;;;;;19.22;60.02;100605.25;5062050;28;20942;-41
2022/10/22 04:34:53;;;;;;;1.95;1.10;;;;;;;19.22;59.99;100610.50;5061738;28;20033;-40
2022/10/22 04:37:18;;;;;;;2.83;1.17;;;;;;;19.22;59.95;100604.44;5062271;28;21337;-41
2022/10/22 04:39:44;;;;;;;1.85;1.00;;;;;;;19.22;59.84;100601.78;5063459;28;20121;-41
2022/10/22 04:42:09;;;;;;;1.58;1.00;;;;;;;19.24;59.86;100606.03;5061859;28;20052;-40
2022/10/22 04:44:35;;;;;;;1.58;1.10;;;;;;;19.25;59.74;100605.06;5060084;28;20020;-41
2022/10/22 04:47:00;;;;;;;0.85;0.75;;;;;;;19.26;59.78;100604.13;5058048;28;20131;-40
2022/10/22 04:49:26;;;;;;;1.55;1.00;;;;;;;19.28;59.71;100604.09;5062374;28;20031;-41
2022/10/22 04:51:51;;;;;;;1.30;1.10;;;;;;;19.28;59.66;100612.00;5062483;28;20036;-40
2022/10/22 04:54:16;;;;;;;1.30;0.95;;;;;;;19.29;59.72;100615.44;5061683;28;20046;-41
2022/10/22 04:56:42;;;;;;;2.92;1.10;;;;;;;19.29;59.67;100618.09;5064239;28;20072;-40
2022/10/22 04:59:11;;;;;;;2.63;1.13;;;;;;;19.31;59.60;100630.25;5062571;28;20093;-40
2022/10/22 05:01:39;;;;;;;1.67;1.20;;;;;;;19.30;59.69;100620.66;5062358;28;20120;-40
2022/10/22 05:04:06;;;;;;;1.23;0.90;;;;;;;19.31;59.71;100624.13;5064855;28;20617;-40
2022/10/22 05:06:32;;;;;;;1.05;0.85;;;;;;;19.32;59.61;100615.28;5058968;28;20037;-40
2022/10/22 05:09:04;;;;;;;4.15;1.30;;;;;;;19.32;59.63;100618.75;5060585;28;20757;-41
2022/10/22 05:11:32;;;;;;;1.83;1.20;;;;;;;19.32;59.48;100612.63;5060617;28;20044;-42
2022/10/22 05:13:59;;;;;;;1.63;0.90;;;;;;;19.33;59.65;100614.34;5062582;28;20071;-40
2022/10/22 05:16:28;;;;;;;1.67;1.02;;;;;;;19.36;59.50;100608.88;5051048;28;21459;-40
2022/10/22 05:18:53;;;;;;;2.13;1.20;;;;;;;19.37;59.46;100611.44;5060000;28;20063;-40
2022/10/22 05:21:19;;;;;;;1.77;1.30;;;;;;;19.38;59.63;100628.94;5061865;28;20500;-40
2022/10/22 05:23:47;;;;;;;1.83;1.20;;;;;;;19.38;59.78;100621.03;5058936;28;20111;-41
2022/10/22 05:26:15;;;;;;;1.30;0.82;;;;;;;19.39;60.03;100620.09;5061948;28;20167;-40
2022/10/22 05:28:41;;;;;;;1.38;1.20;;;;;;;19.44;59.68;100631.19;5059687;28;20968;-40
2022/10/22 05:31:09;;;;;;;1.33;1.02;;;;;;;19.50;59.38;100629.97;5063072;28;20044;-40
2022/10/22 05:33:34;;;;;;;1.25;1.05;;;;;;;19.58;59.21;100630.38;5063614;28;20496;-40
2022/10/22 05:36:01;;;;;;;1.38;1.10;;;;;;;19.61;59.16;100630.22;5059931;28;20047;-40
2022/10/22 05:38:26;;;;;;;1.45;1.23;;;;;;;19.66;58.99;100636.88;5052088;28;20056;-40
2022/10/22 05:40:59;;;;;;;1.23;1.00;;;;;;;19.65;58.99;100640.44;5060305;28;20045;-41
2022/10/22 05:43:25;;;;;;;1.90;1.13;;;;;;;19.67;59.11;100656.16;5054492;28;20067;-40
2022/10/22 05:45:50;;;;;;;3.10;1.00;;;;;;;19.68;59.11;100655.22;5052927;28;20504;-40
2022/10/22 05:48:15;;;;;;;1.73;1.13;;;;;;;19.69;59.10;100659.56;5049744;28;20156;-40
2022/10/22 05:50:41;;;;;;;2.70;1.23;;;;;;;19.68;59.04;100661.34;5052681;28;20063;-41
2022/10/22 05:53:06;;;;;;;2.05;1.10;;;;;;;19.70;59.13;100670.00;5053294;28;20898;-41
2022/10/22 05:55:36;;;;;;;1.55;1.20;;;;;;;19.73;59.11;100674.25;5061069;28;20528;-41
2022/10/22 05:58:02;;;;;;;2.15;1.10;;;;;;;19.72;58.89;100678.69;5053205;28;20041;-40
2022/10/22 06:00:28;;;;;;;1.38;0.90;;;;;;;19.73;59.11;100692.69;5057113;28;20134;-40
2022/10/22 06:02:56;;;;;;;2.20;1.40;;;;;;;19.73;59.20;100690.91;5051370;28;20854;-40
2022/10/22 06:05:21;;;;;;;1.85;1.00;;;;;;;19.77;59.08;100702.13;5054578;28;20105;-40
2022/10/22 06:07:47;;;;;;;1.38;0.80;;;;;;;19.78;59.06;100703.81;5057784;28;20504;-41
2022/10/22 06:10:15;;;;;;;2.22;1.20;;;;;;;19.70;59.19;100704.25;5054629;28;20692;-41
2022/10/22 06:12:41;;;;;;;1.92;1.20;;;;;;;19.70;59.11;100709.53;5055357;28;20287;-40
2022/10/22 06:15:07;;;;;;;3.08;1.30;;;;;;;19.68;59.46;100718.47;5059387;28;21129;-40
2022/10/22 06:17:32;;;;;;;1.70;1.17;;;;;;;19.70;59.38;100713.97;5057549;28;20036;-40
2022/10/22 06:19:57;;;;;;;2.83;1.08;;;;;;;19.64;59.31;100719.63;5058687;28;20047;-40
2022/10/22 06:22:23;;;;;;;2.85;1.17;;;;;;;19.58;59.54;100719.97;5061258;28;20051;-40
2022/10/22 06:24:48;;;;;;;3.35;1.23;;;;;;;19.55;59.59;100730.69;5062701;28;20039;-40
2022/10/22 06:27:13;;;;;;;1.58;1.08;;;;;;;19.51;59.66;100723.91;5062369;28;20032;-40
2022/10/22 06:29:39;;;;;;;2.92;1.20;;;;;;;19.53;59.54;100730.78;5055870;28;20542;-40
2022/10/22 06:32:04;;;;;;;2.78;1.35;;;;;;;19.52;59.55;100733.50;5061216;28;20030;-40
2022/10/22 06:34:30;;;;;;;1.30;1.05;;;;;;;19.51;59.64;100737.06;5052942;28;20614;-40
2022/10/22 06:36:55;;;;;;;2.95;1.10;;;;;;;19.51;59.62;100742.34;5059198;28;20032;-40
2022/10/22 06:39:20;;;;;;;1.92;1.10;;;;;;;19.48;59.57;100753.06;5058129;28;20036;-41
2022/10/22 06:41:46;;;;;;;1.90;0.98;;;;;;;19.46;59.64;100752.31;5056433;28;20122;-41
2022/10/22 06:44:16;;;;;;;4.68;1.77;;;;;;;19.44;59.59;100751.53;5057135;28;20546;-40
2022/10/22 06:46:42;;;;;;;3.65;1.17;;;;;;;19.47;59.84;100756.63;5056002;28;20040;-40
2022/10/22 06:49:12;;;;;;;6.28;1.50;;;;;;;19.47;60.34;100761.91;5061492;28;20584;-40
2022/10/22 06:51:37;;;;;;;1.70;1.15;;;;;;;19.45;59.99;100758.50;5059158;28;20043;-40
2022/10/22 06:54:02;;;;;;;2.83;1.10;;;;;;;19.54;59.74;100765.88;5054799;28;20493;-40
2022/10/22 06:56:28;;;;;;;4.40;1.15;;;;;;;19.56;59.85;100774.53;5054856;28;20028;-41
2022/10/22 06:58:55;;;;;;;4.20;1.65;;;;;;;19.51;60.07;100779.22;5052610;28;21033;-41
2022/10/22 07:01:31;;;;;;;6.55;1.80;;;;;;;19.49;60.06;100783.75;5056919;28;20063;-40
2022/10/22 07:03:56;;;;;;;6.18;1.65;;;;;;;19.48;60.14;100779.41;5057864;28;20033;-41
2022/10/22 07:06:23;;;;;;;3.88;1.50;;;;;;;19.49;60.39;100774.03;5057247;28;20474;-40
2022/10/22 07:08:48;;;;;;;4.75;1.25;;;;;;;19.67;59.39;100780.03;5050106;28;21216;-42
2022/10/22 07:11:15;;;;;;;4.18;1.58;;;;;;;19.66;59.75;100784.47;5052196;28;20736;-43
2022/10/22 07:13:41;;;;;;;3.15;1.25;;;;;;;19.68;60.00;100776.47;5062238;28;20035;-42
2022/10/22 07:16:08;;;;;;;5.93;1.70;;;;;;;19.70;60.13;100791.25;5060175;28;20514;-41
2022/10/22 07:18:34;;;;;;;4.47;1.80;;;;;;;19.57;60.33;100794.69;5062198;28;20056;-40
2022/10/22 07:21:00;;;;;;;5.63;1.70;;;;;;;19.52;60.76;100788.84;5057234;28;20040;-42
2022/10/22 07:23:26;;;;;;;4.82;1.98;;;;;;;19.47;60.24;100793.50;5061532;28;20023;-41
2022/10/22 07:25:51;;;;;;;3.67;1.40;;;;;;;19.47;60.69;100793.50;5056228;28;20123;-41
2022/10/22 07:28:19;;;;;;;4.88;1.40;;;;;;;19.45;60.87;100798.88;5056783;28;20190;-41
2022/10/22 07:30:45;;;;;;;3.15;1.50;;;;;;;19.43;60.73;100806.00;5056750;28;20040;-41
2022/10/22 07:33:10;;;;;;;3.35;1.25;;;;;;;19.73;60.61;100812.16;5060544;28;20050;-41
2022/10/22 07:35:40;;;;;;;6.95;1.70;;;;;;;19.94;60.01;100817.09;5054514;28;20888;-42
2022/10/22 07:38:07;;;;;;;3.80;1.30;;;;;;;19.97;59.80;100812.50;5058690;28;20110;-42
2022/10/22 07:40:34;;;;;;;5.05;1.52;;;;;;;20.01;59.97;100815.81;5052148;28;20062;-42
2022/10/22 07:42:59;;;;;;;3.22;1.38;;;;;;;20.05;59.74;100819.97;5056162;28;20650;-42
2022/10/22 07:45:25;;;;;;;2.97;1.40;;;;;;;20.09;59.69;100834.69;5058936;28;20044;-43
2022/10/22 07:47:50;;;;;;;4.85;1.52;;;;;;;20.10;59.80;100836.41;5056187;28;20492;-44
2022/10/22 07:50:16;;;;;;;4.32;1.90;;;;;;;20.12;59.72;100834.50;5055276;28;20944;-42
2022/10/22 07:52:42;;;;;;;4.72;1.35;;;;;;;20.12;59.62;100838.00;5059226;28;20053;-42
2022/10/22 07:55:07;;;;;;;5.85;1.58;;;;;;;20.05;59.71;100843.72;5053489;28;20049;-41
2022/10/22 07:57:33;;;;;;;3.13;1.95;;;;;;;20.09;59.95;100840.81;5059620;28;20032;-39
2022/10/22 07:59:59;;;;;;;2.05;1.13;;;;;;;20.10;59.97;100847.81;5063990;28;20093;-41
2022/10/22 08:02:25;;;;;;;2.35;1.23;;;;;;;20.06;59.94;100856.78;5065530;28;21230;-42
2022/10/22 08:04:50;;;;;;;3.80;1.40;;;;;;;20.02;59.77;100854.44;5063205;28;20024;-43
2022/10/22 08:07:17;;;;;;;6.28;1.40;;;;;;;20.01;59.73;100864.13;5063083;28;20765;-40
2022/10/22 08:09:43;;;;;;;2.97;1.45;;;;;;;19.98;59.69;100858.19;5056148;28;20436;-39
2022/10/22 08:12:08;;;;;;;4.07;1.40;;;;;;;19.94;59.95;100865.41;5063037;28;20032;-39
2022/10/22 08:14:33;;;;;;;2.63;1.55;;;;;;;19.89;59.73;100872.75;5062917;28;20036;-39
2022/10/22 08:16:59;;;;;;;2.90;1.33;;;;;;;19.92;59.83;100874.34;5059788;28;20475;-39
2022/10/22 08:19:24;;;;;;;1.77;1.17;;;;;;;19.92;59.49;100877.00;5062714;28;20051;-40
2022/10/22 08:21:49;;;;;;;5.15;1.50;;;;;;;19.87;60.06;100861.44;5061786;28;20410;-40
2022/10/22 08:24:15;;;;;;;3.72;1.50;;;;;;;19.80;60.17;100879.41;5059087;28;20045;-39
2022/10/22 08:26:41;;;;;;;5.53;1.50;;;;;;;19.66;60.74;100882.00;5059101;28;20032;-39
2022/10/22 08:29:08;;;;;;;5.25;1.83;;;;;;;19.61;61.03;100889.28;5063347;28;20551;-39
2022/10/22 08:31:33;;;;;;;3.95;1.52;;;;;;;19.66;60.88;100894.31;5058615;28;20128;-39
2022/10/22 08:33:59;;;;;;;2.97;1.20;;;;;;;19.67;60.74;100891.56;5061560;28;20160;-39
2022/10/22 08:36:24;;;;;;;3.58;1.35;;;;;;;19.66;60.62;100891.69;5062164;28;20043;-39
2022/10/22 08:38:53;;;;;;;4.53;1.65;;;;;;;19.56;60.87;100896.59;5064528;28;20035;-39
2022/10/22 08:41:21;;;;;;;7.00;1.60;;;;;;;19.53;61.00;100891.50;5059621;28;20029;-39
2022/10/22 08:43:53;;;;;;;4.05;1.73;;;;;;;19.50;61.12;100896.94;5058450;28;20043;-39
2022/10/22 08:46:41;;;;;;;2.90;1.30;;;;;;;19.53;61.06;100909.09;5063554;28;20155;-39
2022/10/22 08:49:21;;;;;;;2.72;1.55;;;;;;;19.63;60.75;100905.88;5034638;28;20127;-39
2022/10/22 08:51:47;;;;;;;2.50;1.35;;;;;;;19.54;60.76;100901.13;5060983;28;20043;-39
2022/10/22 08:54:29;;;;;;;3.20;1.60;;;;;;;19.52;61.10;100902.16;5062598;28;20415;-46
2022/10/22 08:57:04;;;;;;;2.80;1.20;;;;;;;19.51;60.91;100917.09;5058105;28;20034;-39
2022/10/22 09:00:18;;;;;;;3.42;1.35;;;;;;;19.55;60.75;100913.34;5059463;28;20040;-39
2022/10/22 09:03:01;;;;;;;5.47;1.60;;;;;;;19.61;60.75;100917.44;5052733;28;20072;-39
2022/10/22 09:05:47;;;;;;;5.55;1.58;;;;;;;19.61;60.77;100917.44;5063246;28;20043;-39
2022/10/22 09:08:14;;;;;;;1.05;0.85;;;;;;;19.58;60.70;100923.72;5060094;28;20040;-39
2022/10/22 09:10:47;;;;;;;2.75;1.40;;;;;;;19.51;61.06;100922.38;5056304;28;20123;-39
2022/10/22 09:13:17;;;;;;;1.75;1.27;;;;;;;19.56;60.95;100928.22;5062319;28;20160;-39
2022/10/22 09:15:44;;;;;;;3.05;1.35;;;;;;;19.54;60.90;100931.88;5063096;28;20051;-40
2022/10/22 09:18:27;;;;;;;4.75;1.75;;;;;;;19.52;61.03;100934.59;5059303;28;20041;-39
2022/10/22 09:20:57;;;;;;;2.38;1.27;;;;;;;19.48;61.16;100930.44;5060764;28;20035;-39
2022/10/22 09:23:58;;;;;;;4.50;1.88;;;;;;;19.47;61.00;100936.63;5064598;28;20047;-39
2022/10/22 09:26:25;;;;;;;2.92;1.30;;;;;;;19.47;61.10;100943.69;5057789;28;20458;-39
2022/10/22 09:28:51;;;;;;;6.57;1.55;;;;;;;19.47;61.10;100938.41;5060740;28;20493;-39
2022/10/22 09:31:16;;;;;;;3.58;1.42;;;;;;;19.51;60.82;100942.59;5066419;28;20140;-39
2022/10/22 09:33:44;;;;;;;2.83;1.42;;;;;;;19.51;60.80;100940.81;5061156;28;20028;-40
2022/10/22 09:36:16;;;;;;;3.90;1.33;;;;;;;19.51;60.83;100939.97;5056633;28;20052;-39
2022/10/22 09:38:48;;;;;;;2.17;1.30;;;;;;;19.51;60.80;100947.88;5059387;28;20040;-40
2022/10/22 09:41:13;;;;;;;1.67;1.00;;;;;;;19.50;60.88;100946.16;5056641;28;20835;-39
2022/10/22 09:43:39;;;;;;;2.70;1.13;;;;;;;19.45;61.16;100945.56;5061395;28;20040;-39
2022/10/22 09:46:13;;;;;;;1.83;1.23;;;;;;;19.47;60.94;100944.53;5060863;28;20037;-40
2022/10/22 09:48:41;;;;;;;4.55;1.38;;;;;;;19.48;60.90;100950.66;5058623;28;20152;-39
2022/10/22 09:51:17;;;;;;;2.83;1.27;;;;;;;19.48;60.59;100953.31;5060547;28;20719;-40
2022/10/22 09:53:45;;;;;;;3.80;1.20;;;;;;;19.49;60.80;100950.56;5063025;28;20097;-39
2022/10/22 09:56:26;;;;;;;2.13;1.42;;;;;;;19.50;60.71;100949.66;5058261;28;20036;-39
2022/10/22 09:58:55;;;;;;;3.35;1.30;;;;;;;19.49;60.81;100957.66;5054287;28;20036;-39
2022/10/22 10:01:23;;;;;;;1.25;1.10;;;;;;;19.52;60.78;100960.94;5056966;28;20047;-39
2022/10/22 10:03:49;;;;;;;4.20;1.15;;;;;;;19.55;60.61;100958.13;5060867;28;20046;-39
2022/10/22 10:06:19;;;;;;;2.65;1.50;;;;;;;19.59;60.39;100964.09;5057298;28;20029;-39
2022/10/22 10:08:45;;;;;;;2.10;1.05;;;;;;;19.62;60.23;100963.94;5059096;28;20048;-39
2022/10/22 10:11:22;;;;;;;3.03;1.42;;;;;;;19.66;60.17;100958.41;5058462;28;20033;-39
2022/10/22 10:14:09;;;;;;;3.15;1.42;;;;;;;19.56;60.51;100959.00;5056955;28;20050;-40
2022/10/22 10:16:41;;;;;;;2.03;1.20;;;;;;;19.58;60.46;100970.31;5061171;28;20049;-39
2022/10/22 10:19:24;;;;;;;2.80;1.38;;;;;;;19.51;60.65;100974.22;5058887;28;20144;-39
2022/10/22 10:22:33;;;;;;;3.58;1.80;;;;;;;19.57;60.42;100972.09;5057520;28;20040;-39
2022/10/22 10:25:07;;;;;;;2.30;1.10;;;;;;;19.54;60.60;100974.91;5060944;28;20131;-39
2022/10/22 10:27:38;;;;;;;3.58;1.60;;;;;;;19.52;60.58;100981.19;5057489;28;20028;-40
2022/10/22 10:30:17;;;;;;;1.95;1.20;;;;;;;19.47;60.77;100981.44;5054942;28;20045;-39
2022/10/22 10:33:01;;;;;;;2.85;1.30;;;;;;;19.49;60.67;100981.38;5060072;28;20505;-39
2022/10/22 10:36:01;;;;;;;3.22;1.30;;;;;;;19.51;60.64;100987.38;5054918;28;20028;-40
2022/10/22 10:38:30;;;;;;;4.75;1.27;;;;;;;19.58;60.40;100997.50;5057590;28;20044;-45
2022/10/22 10:41:16;;;;;;;1.65;1.27;;;;;;;19.61;60.31;100993.88;5056109;28;20059;-46
2022/10/22 10:44:06;;;;;;;3.13;1.10;;;;;;;19.67;60.00;101002.28;5058079;28;20052;-45
2022/10/22 10:47:04;;;;;;;4.45;1.20;;;;;;;19.71;59.94;101003.81;5060729;28;20051;-45
2022/10/22 10:49:33;;;;;;;2.53;1.30;;;;;;;19.69;60.13;101005.69;5057288;28;21131;-45
2022/10/22 10:52:33;;;;;;;2.08;1.15;;;;;;;19.68;60.01;101003.13;5058126;28;21008;-47
2022/10/22 10:55:21;;;;;;;1.55;1.10;;;;;;;19.66;60.05;100991.81;5063050;28;20573;-46
2022/10/22 10:58:07;;;;;;;2.95;1.17;;;;;;;19.76;59.73;101000.91;5060395;28;20052;-46
2022/10/22 11:00:44;;;;;;;2.47;1.30;;;;;;;19.74;59.65;101001.00;5056800;28;20037;-47
2022/10/22 11:03:21;;;;;;;1.77;1.10;;;;;;;19.76;59.61;100996.50;5059300;28;20045;-46
2022/10/22 11:05:51;;;;;;;2.05;1.02;;;;;;;19.73;59.81;100996.66;5057064;28;20069;-47
2022/10/22 11:08:29;;;;;;;1.92;1.40;;;;;;;19.73;59.82;100998.44;5057918;28;20094;-46
2022/10/22 11:11:10;;;;;;;2.10;1.10;;;;;;;19.77;59.65;101003.47;5062235;28;20043;-46
2022/10/22 11:13:51;;;;;;;1.73;1.00;;;;;;;19.76;59.63;101003.53;5057408;28;20040;-46
2022/10/22 11:16:16;;;;;;;2.90;1.10;;;;;;;19.71;59.71;101002.94;5064596;28;20096;-48
2022/10/22 11:19:22;;;;;;;2.13;1.20;;;;;;;19.69;59.82;101002.19;5062502;28;20801;-47
2022/10/22 11:21:50;;;;;;;;;;;;;;;19.67;59.90;101004.03;5030460;28;20051;-46
2022/10/22 11:24:29;;;;;;;1.67;1.08;;;;;;;19.65;59.93;101004.16;5060790;28;19939;-47
2022/10/22 11:26:59;;;;;;;2.30;1.20;;;;;;;19.69;59.87;101002.19;5057158;28;20075;-47
2022/10/22 11:29:46;;;;;;;1.40;0.90;;;;;;;19.70;59.85;101001.25;5061390;28;20032;-47
2022/10/22 11:32:16;;;;;;;1.92;1.10;;;;;;;19.71;59.80;101001.19;5061039;28;20040;-46
2022/10/22 11:34:47;;;;;;;2.13;1.25;;;;;;;19.69;59.74;100999.56;5060609;28;20097;-46
2022/10/22 11:37:15;;;;;;;1.30;0.90;;;;;;;19.70;59.73;101002.09;5062461;28;20060;-47